This is the latest recevied weather packets stored in our database for station/object EA3IK-1. If no packets are shown the sender has not sent any weather packets the latest 10 day(s).
| Time | Temp. | Humidity | Pressure | Rain* | Wind** | Luminosity | Snow |
|---|---|---|---|---|---|---|---|
| 1777669888 | 16.11° C | 47% | 1023.8 hPa | 0 mm | - | - | - |
| 1777668987 | 16.11° C | 48% | 1023.9 hPa | 0 mm | - | - | - |
| 1777667185 | 16.67° C | 50% | 1023.6 hPa | 0 mm | - | - | - |
| 1777666284 | 16.67° C | 51% | 1023.5 hPa | 0 mm | - | - | - |
| 1777665383 | 16.67° C | 52% | 1023.4 hPa | 0 mm | - | - | - |
| 1777664483 | 16.67° C | 54% | 1023.1 hPa | 0 mm | - | - | - |
| 1777663582 | 16.67° C | 55% | 1023 hPa | 0 mm | - | - | - |
| 1777662681 | 17.22° C | 56% | 1022.9 hPa | 0 mm | - | - | - |
| 1777659978 | 17.22° C | 59% | 1022.2 hPa | 0 mm | - | - | - |
| 1777659077 | 17.78° C | 60% | 1021.9 hPa | 0 mm | - | - | - |
| 1777658177 | 17.78° C | 63% | 1021.8 hPa | 0 mm | - | - | - |
| 1777656375 | 18.33° C | 67% | 1021.6 hPa | 0 mm | - | - | - |
| 1777655474 | 18.33° C | 68% | 1021.5 hPa | 0 mm | - | - | - |
| 1777654573 | 18.89° C | 68% | 1021.4 hPa | 0 mm | - | - | - |
| 1777652772 | 18.89° C | 68% | 1021.3 hPa | 0 mm | - | - | - |
| 1777651871 | 18.89° C | 68% | 1021.2 hPa | 0 mm | - | - | - |
| 1777650970 | 19.44° C | 68% | 1021.2 hPa | 0 mm | - | - | - |
| 1777650069 | 19.44° C | 68% | 1021.2 hPa | 0 mm | - | - | - |
| 1777649168 | 19.44° C | 68% | 1021.2 hPa | 0 mm | - | - | - |
| 1777648267 | 20° C | 67% | 1021.2 hPa | 0 mm | - | - | - |
| 1777647367 | 20° C | 66% | 1021.2 hPa | 0 mm | - | - | - |
| 1777646466 | 20.56° C | 67% | 1021.2 hPa | 0 mm | - | - | - |
| 1777645565 | 20° C | 67% | 1021.3 hPa | 0 mm | - | - | - |
| 1777644664 | 20.56° C | 67% | 1021.3 hPa | 0 mm | - | - | - |
| 1777643763 | 20.56° C | 67% | 1021.3 hPa | 0 mm | - | - | - |
* Rain latest hour (hover to see other rain measurements)
** Current wind speed in m/s (hover to see current wind gust speed)